Notice: Undefined index: language in /home/u110864294/public_html/vam/index.php on line 26
Air Comet Virtual

 METAR AND TAF INFORMATION
METAR FOR LFLB
ADDS - METARS form results

(0418 UTC 21 August 2018)
Data provider http://aviationweather.gov/adds/metars/
 
METAR text: LFLB 210400Z AUTO 00000KT CAVOK 16/15 Q1018 NOSIG
Conditions at: LFLB (CHAMBERY/AIX BAI, FR) observed 0400 UTC 21 August 2018
Temperature: 16.0°C (61°F)
Dewpoint: 15.0°C (59°F) [RH = 94%]
Pressure (altimeter): 30.06 inches Hg (1018.0 mb)
Winds: calm
Visibility: 6 or more miles (10+ km)
Ceiling: ceiling and visibility are OK
Clouds: unknown
Weather: no significant weather observed at this time

METAR text: LFLB 210330Z AUTO VRB02KT CAVOK 16/15 Q1018 NOSIG
Conditions at: LFLB (CHAMBERY/AIX BAI, FR) observed 0330 UTC 21 August 2018
Temperature: 16.0°C (61°F)
Dewpoint: 15.0°C (59°F) [RH = 94%]
Pressure (altimeter): 30.06 inches Hg (1018.0 mb)
Winds: variable direction winds at 2 MPH (2 knots; 1.0 m/s)
Visibility: 6 or more miles (10+ km)
Ceiling: ceiling and visibility are OK
Clouds: unknown
Weather: no significant weather observed at this time

Forecast for: LFLB (CHAMBERY/AIX BAI, FR)
Text: TAF LFLB 202300Z 2100/2124 VRB05KT CAVOK
Forecast period: 0000 UTC 21 August 2018 to 0000 UTC 22 August 2018
Forecast type: FROM: standard forecast or significant change
Winds: variable direction winds at 6 MPH (5 knots; 2.6 m/s)
Visibility: 6 or more miles (10+ km)
Clouds: not forecast
Weather: NSW  (no significant weather)
Text: PROB40
Forecast period: 1200 to 1800 UTC 21 August 2018
Forecast type: TEMPORARY: The following changes expected for less than half the time period
Clouds: few clouds at 8000 feet AGL
Weather: no significant weather forecast for this period

 AIRPORT MAP

 RUNWAY INFORMATION
Runway 18 Runway length 6628 ft Runway width 148 ft
Runway elevation 769 ft Runway displaced threshold 755 ft Runway heading 176
Runway 36 Runway length 6628 ft Runway width 148 ft
Runway elevation 778 ft Runway displaced threshold 460 ft Runway heading 356

 AIRPORT FREQUENCIES
Type APP Name CHAMBERY A Frequency 123.7 MHZ
Type ATIS Name CHAMBERY A Frequency 124.575 MHZ
Type TWR Name CHAMBERY T Frequency 118.3 MHZ

 AIRPORT NEAR NAVIGATION AIDS



Powered by Virtual Airlines Manager [v2.6.2]